Time;durP1;ratioP1;P1;durP2;ratioP2;P2;SDS_P1;SDS_P2;PMS_P1;PMS_P2;Temp;Humidity;BMP_temperature;BMP_pressure;BME280_temperature;BME280_humidity;BME280_pressure;Samples;Min_cycle;Max_cycle;Signal;HPM_P1;HPM_P2
2023/12/31 00:01:55;;;;;;;1999.90;999.90;;;9.70;99.90;;;;;;5031509;28;20045;-70
2023/12/31 00:04:22;;;;;;;1999.90;999.90;;;9.70;99.90;;;;;;5031917;28;20384;-70
2023/12/31 00:06:48;;;;;;;1999.90;999.90;;;9.60;99.90;;;;;;5032420;28;20405;-70
2023/12/31 00:09:13;;;;;;;1999.90;999.90;;;9.70;99.90;;;;;;5032115;28;20112;-70
2023/12/31 00:11:39;;;;;;;1999.90;999.90;;;9.60;99.90;;;;;;5032247;28;20029;-70
2023/12/31 00:14:05;;;;;;;1999.90;999.90;;;9.60;99.90;;;;;;5031943;28;20335;-70
2023/12/31 00:16:32;;;;;;;1999.90;999.90;;;9.70;99.90;;;;;;5035179;28;20108;-70
2023/12/31 00:18:58;;;;;;;1999.90;999.90;;;9.60;99.90;;;;;;5032460;28;20541;-69
2023/12/31 00:21:23;;;;;;;1999.90;999.90;;;9.60;99.90;;;;;;5031842;28;20029;-70
2023/12/31 00:23:49;;;;;;;1999.90;999.90;;;9.60;99.90;;;;;;5032269;28;20053;-70
2023/12/31 00:26:15;;;;;;;1999.90;999.90;;;9.60;99.90;;;;;;5027690;28;20030;-70
2023/12/31 00:28:40;;;;;;;1999.90;999.90;;;9.60;99.90;;;;;;5032093;28;20029;-70
2023/12/31 00:31:06;;;;;;;1999.90;999.90;;;9.50;99.90;;;;;;5032049;28;20104;-70
2023/12/31 00:33:32;;;;;;;1999.90;999.90;;;9.60;99.90;;;;;;5036682;28;20030;-70
2023/12/31 00:36:00;;;;;;;1999.90;999.90;;;9.50;99.90;;;;;;5027972;28;20033;-70
2023/12/31 00:38:26;;;;;;;1999.90;999.90;;;9.50;99.90;;;;;;5027765;28;20037;-70
2023/12/31 00:40:52;;;;;;;1999.90;999.90;;;9.50;99.90;;;;;;5031400;28;20029;-70
2023/12/31 00:43:19;;;;;;;1999.90;999.90;;;9.50;99.90;;;;;;5031939;28;20077;-70
2023/12/31 00:45:44;;;;;;;1999.90;999.90;;;9.50;99.90;;;;;;5031627;28;20587;-70
2023/12/31 00:48:10;;;;;;;1999.90;999.90;;;9.50;99.90;;;;;;5031721;28;20033;-69
2023/12/31 00:50:37;;;;;;;1999.90;999.90;;;9.50;99.90;;;;;;5031446;28;20116;-70
2023/12/31 00:53:02;;;;;;;1999.90;999.90;;;9.50;99.90;;;;;;5032412;28;20021;-68
2023/12/31 00:55:28;;;;;;;1999.90;999.90;;;9.50;99.90;;;;;;5032369;28;20454;-70
2023/12/31 00:57:54;;;;;;;1999.90;999.90;;;9.50;99.90;;;;;;5031402;28;20163;-70
2023/12/31 01:00:20;;;;;;;1999.90;999.90;;;9.50;99.90;;;;;;5029125;28;20041;-70
2023/12/31 01:02:46;;;;;;;1999.90;999.90;;;9.50;99.90;;;;;;5031414;28;20369;-70
2023/12/31 01:05:11;;;;;;;1999.90;999.90;;;9.40;99.90;;;;;;5027731;28;20033;-70
2023/12/31 01:07:37;;;;;;;1999.90;999.90;;;9.50;99.90;;;;;;5013939;28;20080;-70
2023/12/31 01:10:03;;;;;;;1999.90;999.90;;;9.50;99.90;;;;;;5016147;28;20048;-70
2023/12/31 01:12:29;;;;;;;1999.90;999.90;;;9.40;99.90;;;;;;5025865;28;20317;-70
2023/12/31 01:14:54;;;;;;;1999.90;999.90;;;9.50;99.90;;;;;;5029013;28;20026;-70
2023/12/31 01:17:20;;;;;;;1999.90;999.90;;;9.50;99.90;;;;;;5029228;28;20029;-70
2023/12/31 01:19:46;;;;;;;1999.90;999.90;;;9.50;99.90;;;;;;5031037;28;20337;-70
2023/12/31 01:22:11;;;;;;;1999.90;999.90;;;9.50;99.90;;;;;;5031998;28;20324;-70
2023/12/31 01:24:37;;;;;;;1999.90;999.90;;;9.50;99.90;;;;;;5017494;28;20026;-70
2023/12/31 01:27:03;;;;;;;1999.90;999.90;;;9.50;99.90;;;;;;5031826;28;20029;-69
2023/12/31 01:29:29;;;;;;;1999.90;999.90;;;9.50;99.90;;;;;;5035448;28;20079;-70
2023/12/31 01:31:55;;;;;;;1999.90;999.90;;;9.50;99.90;;;;;;5034525;28;20612;-70
2023/12/31 01:34:20;;;;;;;1999.90;999.90;;;9.60;99.90;;;;;;5035078;28;20068;-69
2023/12/31 01:36:46;;;;;;;1999.90;999.90;;;9.60;99.90;;;;;;5034467;28;20028;-71
2023/12/31 01:39:12;;;;;;;1999.90;999.90;;;9.60;99.90;;;;;;5033460;28;20411;-70
2023/12/31 01:41:38;;;;;;;1999.90;999.90;;;9.50;99.90;;;;;;5029462;28;20096;-70
2023/12/31 01:44:06;;;;;;;1999.90;999.90;;;9.50;99.90;;;;;;5034711;28;20064;-70
2023/12/31 01:46:32;;;;;;;1999.90;999.90;;;9.50;99.90;;;;;;5033855;28;20356;-70
2023/12/31 01:48:59;;;;;;;1999.90;999.90;;;9.50;99.90;;;;;;5031022;28;20022;-71
2023/12/31 01:51:27;;;;;;;1999.90;999.90;;;9.50;99.90;;;;;;5033795;28;20446;-70
2023/12/31 01:53:55;;;;;;;1999.90;999.90;;;9.50;99.90;;;;;;5034594;28;20087;-70
2023/12/31 01:56:21;;;;;;;1999.90;999.90;;;9.40;99.90;;;;;;5034757;28;20028;-70
2023/12/31 01:58:48;;;;;;;1999.90;999.90;;;9.50;99.90;;;;;;5034717;28;20122;-70
2023/12/31 02:01:14;;;;;;;1999.90;999.90;;;9.50;99.90;;;;;;5030755;28;20437;-70
2023/12/31 02:03:40;;;;;;;1999.90;999.90;;;9.40;99.90;;;;;;5034715;28;20049;-70
2023/12/31 02:06:06;;;;;;;1999.90;999.90;;;9.40;99.90;;;;;;5032886;28;20030;-70
2023/12/31 02:08:32;;;;;;;1999.90;999.90;;;9.40;99.90;;;;;;5033338;28;20085;-70
2023/12/31 02:10:57;;;;;;;1999.90;999.90;;;9.50;99.90;;;;;;5033997;28;20500;-70
2023/12/31 02:13:23;;;;;;;1999.90;999.90;;;9.50;99.90;;;;;;5034150;28;20021;-70
2023/12/31 02:15:52;;;;;;;1999.90;999.90;;;9.50;99.90;;;;;;5030174;28;20030;-70
2023/12/31 02:18:18;;;;;;;1999.90;999.90;;;9.50;99.90;;;;;;5020147;28;20029;-70
2023/12/31 02:20:44;;;;;;;1999.90;999.90;;;9.50;99.90;;;;;;5034379;28;20324;-69
2023/12/31 02:23:10;;;;;;;1999.90;999.90;;;9.50;99.90;;;;;;5033596;28;20096;-70
2023/12/31 02:25:39;;;;;;;1999.90;999.90;;;9.50;99.90;;;;;;5031318;28;20022;-69
2023/12/31 02:28:08;;;;;;;1999.90;999.90;;;9.50;99.90;;;;;;5030572;28;20029;-70
2023/12/31 02:30:34;;;;;;;1999.90;999.90;;;9.50;99.90;;;;;;5034082;28;20033;-70
2023/12/31 02:32:59;;;;;;;1999.90;999.90;;;9.50;99.90;;;;;;5032696;28;20039;-70
2023/12/31 02:35:25;;;;;;;1999.90;999.90;;;9.50;99.90;;;;;;5033887;28;20036;-70
2023/12/31 02:37:51;;;;;;;1999.90;999.90;;;9.50;99.90;;;;;;5029584;28;20061;-70
2023/12/31 02:40:16;;;;;;;1999.90;999.90;;;9.50;99.90;;;;;;5033267;28;20056;-70
2023/12/31 02:42:42;;;;;;;1999.90;999.90;;;9.50;99.90;;;;;;5033276;28;20040;-70
2023/12/31 02:45:08;;;;;;;1999.90;999.90;;;9.50;99.90;;;;;;5033496;28;20033;-70
2023/12/31 02:47:34;;;;;;;1999.90;999.90;;;9.50;99.90;;;;;;5033258;28;20100;-70
2023/12/31 02:49:59;;;;;;;1999.90;999.90;;;9.50;99.90;;;;;;5034129;28;20136;-71
2023/12/31 02:52:25;;;;;;;1999.90;999.90;;;9.50;99.90;;;;;;5020447;28;20082;-70
2023/12/31 02:54:51;;;;;;;1999.90;999.90;;;9.60;99.90;;;;;;5025190;28;20026;-70
2023/12/31 02:57:18;;;;;;;1999.90;999.90;;;9.50;99.90;;;;;;5020273;28;20029;-70
2023/12/31 02:59:44;;;;;;;1999.90;999.90;;;9.50;99.90;;;;;;5033410;28;20025;-70
2023/12/31 03:02:10;;;;;;;1999.90;999.90;;;9.50;99.90;;;;;;5029343;28;20033;-70
2023/12/31 03:04:40;;;;;;;1999.90;999.90;;;9.50;99.90;;;;;;5031560;28;20033;-70
2023/12/31 03:07:06;;;;;;;1999.90;999.90;;;9.50;99.90;;;;;;5033717;28;20048;-70
2023/12/31 03:09:32;;;;;;;1999.90;999.90;;;9.50;99.90;;;;;;5032311;28;20025;-70
2023/12/31 03:11:57;;;;;;;1999.90;999.90;;;9.50;99.90;;;;;;5022871;28;20030;-70
2023/12/31 03:14:23;;;;;;;1999.90;999.90;;;9.40;99.90;;;;;;5029166;28;20026;-70
2023/12/31 03:16:49;;;;;;;1999.90;999.90;;;9.50;99.90;;;;;;5020907;28;20025;-70
2023/12/31 03:19:15;;;;;;;1999.90;999.90;;;9.40;99.90;;;;;;5033141;28;20112;-70
2023/12/31 03:21:42;;;;;;;1999.90;999.90;;;9.50;99.90;;;;;;5032399;28;20053;-70
2023/12/31 03:24:08;;;;;;;1999.90;999.90;;;9.50;99.90;;;;;;5032800;28;20021;-70
2023/12/31 03:26:35;;;;;;;1999.90;999.90;;;9.50;99.90;;;;;;5028837;28;20100;-70
2023/12/31 03:29:01;;;;;;;1999.90;999.90;;;9.50;99.90;;;;;;5026038;28;20444;-69
2023/12/31 03:31:27;;;;;;;1999.90;999.90;;;9.50;99.90;;;;;;5032514;28;20068;-70
2023/12/31 03:33:53;;;;;;;1999.90;999.90;;;9.50;99.90;;;;;;5032642;28;20063;-70
2023/12/31 03:36:20;;;;;;;1999.90;999.90;;;9.50;99.90;;;;;;5032423;28;20025;-70
2023/12/31 03:38:47;;;;;;;1999.90;999.90;;;9.50;99.90;;;;;;5031482;28;20121;-70
2023/12/31 03:41:13;;;;;;;1999.90;999.90;;;9.50;99.90;;;;;;5031710;28;20076;-70
2023/12/31 03:43:39;;;;;;;1999.90;999.90;;;9.50;99.90;;;;;;5030866;28;20482;-70
2023/12/31 03:46:04;;;;;;;1999.90;999.90;;;9.50;99.90;;;;;;5032081;28;20092;-70
2023/12/31 03:48:30;;;;;;;1999.90;999.90;;;9.60;99.90;;;;;;5024902;28;20034;-70
2023/12/31 03:50:56;;;;;;;1999.90;999.90;;;9.50;99.90;;;;;;5024172;28;20057;-70
2023/12/31 03:53:21;;;;;;;1999.90;999.90;;;9.50;99.90;;;;;;5030554;28;20025;-70
2023/12/31 03:55:47;;;;;;;1999.90;999.90;;;9.50;99.90;;;;;;5020377;28;20023;-70
2023/12/31 03:58:13;;;;;;;1999.90;999.90;;;9.50;99.90;;;;;;5032217;28;20029;-70
2023/12/31 04:00:38;;;;;;;1999.90;999.90;;;9.50;99.90;;;;;;5030843;28;20040;-70
2023/12/31 04:03:04;;;;;;;1999.90;999.90;;;9.50;99.90;;;;;;5032494;28;20117;-71
2023/12/31 04:05:30;;;;;;;1999.90;999.90;;;9.50;99.90;;;;;;5032088;28;20025;-69
2023/12/31 04:07:57;;;;;;;1999.90;999.90;;;9.50;99.90;;;;;;5024860;28;20022;-70
2023/12/31 04:10:22;;;;;;;1999.90;999.90;;;9.50;99.90;;;;;;5030966;28;20116;-70
2023/12/31 04:12:48;;;;;;;1999.90;999.90;;;9.50;99.90;;;;;;5031226;28;20361;-70
2023/12/31 04:15:14;;;;;;;1999.90;999.90;;;9.50;99.90;;;;;;5031323;28;20025;-70
2023/12/31 04:17:39;;;;;;;1999.90;999.90;;;9.50;99.90;;;;;;5018629;28;20021;-70
2023/12/31 04:20:06;;;;;;;1999.90;999.90;;;9.50;99.90;;;;;;5031773;28;20034;-70
2023/12/31 04:22:32;;;;;;;1999.90;999.90;;;9.50;99.90;;;;;;5022000;28;20017;-70
2023/12/31 04:24:58;;;;;;;1999.90;999.90;;;9.40;99.90;;;;;;5031006;28;20435;-70
2023/12/31 04:27:23;;;;;;;1999.90;999.90;;;9.50;99.90;;;;;;5027206;28;20391;-70
2023/12/31 04:29:49;;;;;;;1999.90;999.90;;;9.40;99.90;;;;;;5039887;28;20013;-70
2023/12/31 04:32:15;;;;;;;1999.90;999.90;;;9.40;99.90;;;;;;5029692;28;20037;-70
2023/12/31 04:34:41;;;;;;;1999.90;999.90;;;9.50;99.90;;;;;;5028410;28;20025;-70
2023/12/31 04:37:06;;;;;;;1999.90;999.90;;;9.40;99.90;;;;;;5041041;28;20148;-69
2023/12/31 04:39:32;;;;;;;1999.90;999.90;;;9.50;99.90;;;;;;5027120;28;20129;-70
2023/12/31 04:41:58;;;;;;;1999.90;999.90;;;9.50;99.90;;;;;;5024787;28;20057;-70
2023/12/31 04:44:23;;;;;;;1999.90;999.90;;;9.50;99.90;;;;;;5027655;28;20029;-70
2023/12/31 04:46:49;;;;;;;1999.90;999.90;;;9.50;99.90;;;;;;5016689;28;20022;-70
2023/12/31 04:49:16;;;;;;;1999.90;999.90;;;9.40;99.90;;;;;;5026268;28;20064;-70
2023/12/31 04:51:42;;;;;;;1999.90;999.90;;;9.50;99.90;;;;;;5029085;28;20029;-71
2023/12/31 04:54:09;;;;;;;1999.90;999.90;;;9.50;99.90;;;;;;5032112;28;21465;-70
2023/12/31 04:56:35;;;;;;;1999.90;999.90;;;9.60;99.90;;;;;;5029491;28;20037;-70
2023/12/31 04:59:01;;;;;;;1999.90;999.90;;;9.60;99.90;;;;;;5032569;28;20037;-70
2023/12/31 05:01:31;;;;;;;1999.90;999.90;;;9.60;99.90;;;;;;5034751;28;20733;-70
2023/12/31 05:03:58;;;;;;;1999.90;999.90;;;9.50;99.90;;;;;;5039685;28;20045;-70
2023/12/31 05:06:24;;;;;;;1999.90;999.90;;;9.60;99.90;;;;;;5030840;28;20109;-70
2023/12/31 05:08:51;;;;;;;1999.90;999.90;;;9.60;99.90;;;;;;5034391;28;20094;-70
2023/12/31 05:11:17;;;;;;;1999.90;999.90;;;9.60;99.90;;;;;;5039396;28;20247;-70
2023/12/31 05:13:43;;;;;;;1999.90;999.90;;;9.60;99.90;;;;;;5040032;28;20492;-70
2023/12/31 05:16:13;;;;;;;1999.90;999.90;;;9.60;99.90;;;;;;5037374;28;20485;-70
2023/12/31 05:18:46;;;;;;;1999.90;999.90;;;9.70;99.90;;;;;;5033011;28;20034;-70
2023/12/31 05:21:12;;;;;;;1999.90;999.90;;;9.70;99.90;;;;;;5038674;28;20543;-71
2023/12/31 05:23:38;;;;;;;1999.90;999.90;;;9.60;99.90;;;;;;5023061;28;20034;-70
2023/12/31 05:26:04;;;;;;;1999.90;999.90;;;9.60;99.90;;;;;;5037240;28;20420;-70
2023/12/31 05:28:30;;;;;;;1999.90;999.90;;;9.60;99.90;;;;;;5037529;28;20086;-70
2023/12/31 05:30:56;;;;;;;1999.90;999.90;;;9.70;99.90;;;;;;5042903;28;20595;-70
2023/12/31 05:33:21;;;;;;;1999.90;999.90;;;9.60;99.90;;;;;;5039968;28;20029;-70
2023/12/31 05:35:47;;;;;;;1999.90;999.90;;;9.70;99.90;;;;;;5041803;28;20021;-70
2023/12/31 05:38:13;;;;;;;1999.90;999.90;;;9.80;99.90;;;;;;5038844;28;20043;-70
2023/12/31 05:40:39;;;;;;;1999.90;999.90;;;9.70;99.90;;;;;;5033462;28;20065;-70
2023/12/31 05:43:05;;;;;;;1999.90;999.90;;;9.70;99.90;;;;;;5033635;28;20269;-70
2023/12/31 05:45:30;;;;;;;1999.90;999.90;;;9.70;99.90;;;;;;5033897;28;20065;-71
2023/12/31 05:47:57;;;;;;;1999.90;999.90;;;9.80;99.90;;;;;;5036549;28;20394;-70
2023/12/31 05:50:22;;;;;;;1999.90;999.90;;;9.80;99.90;;;;;;5022552;28;20105;-70
2023/12/31 05:52:48;;;;;;;1999.90;999.90;;;9.80;99.90;;;;;;5025435;28;20341;-69
2023/12/31 05:55:14;;;;;;;1999.90;999.90;;;9.80;99.90;;;;;;5030883;28;20071;-70
2023/12/31 05:57:40;;;;;;;1999.90;999.90;;;9.80;99.90;;;;;;5041131;28;20039;-70
2023/12/31 06:00:07;;;;;;;1999.90;999.90;;;9.80;99.90;;;;;;5035431;28;20074;-71
2023/12/31 06:02:33;;;;;;;1999.90;999.90;;;9.70;99.90;;;;;;5042864;28;20028;-70
2023/12/31 06:04:59;;;;;;;1999.90;999.90;;;9.80;99.90;;;;;;5040276;28;20022;-70
2023/12/31 06:07:25;;;;;;;1999.90;999.90;;;9.70;99.90;;;;;;5043386;28;20207;-70
2023/12/31 06:09:51;;;;;;;1999.90;999.90;;;9.70;99.90;;;;;;5032104;28;20352;-70
2023/12/31 06:12:17;;;;;;;1999.90;999.90;;;9.70;99.90;;;;;;5043170;28;20111;-70
2023/12/31 06:14:43;;;;;;;1999.90;999.90;;;9.70;99.90;;;;;;5029791;28;20029;-70
2023/12/31 06:17:09;;;;;;;1999.90;999.90;;;9.60;99.90;;;;;;5038959;28;20040;-70
2023/12/31 06:19:34;;;;;;;1999.90;999.90;;;9.60;99.90;;;;;;5043474;28;20140;-70
2023/12/31 06:22:00;;;;;;;1999.90;999.90;;;9.70;99.90;;;;;;5038740;28;20034;-70
2023/12/31 06:24:26;;;;;;;1999.90;999.90;;;9.60;99.90;;;;;;5042060;28;20029;-70
2023/12/31 06:26:52;;;;;;;1999.90;999.90;;;9.60;99.90;;;;;;5035975;28;20021;-70
2023/12/31 06:29:18;;;;;;;1999.90;999.90;;;9.60;99.90;;;;;;5039652;28;20051;-70
2023/12/31 06:31:44;;;;;;;1999.90;999.90;;;9.60;99.90;;;;;;5033489;28;20479;-70
2023/12/31 06:34:10;;;;;;;1999.90;999.90;;;9.50;99.90;;;;;;5034657;28;20047;-71
2023/12/31 06:36:37;;;;;;;1999.90;999.90;;;9.50;99.90;;;;;;5047282;28;20424;-70
2023/12/31 06:39:02;;;;;;;1999.90;999.90;;;9.60;99.90;;;;;;5037284;28;20108;-70
2023/12/31 06:41:28;;;;;;;1999.90;999.90;;;9.50;99.90;;;;;;5034250;28;20128;-69
2023/12/31 06:43:54;;;;;;;1999.90;999.90;;;9.60;99.90;;;;;;5041658;28;20040;-70
2023/12/31 06:46:20;;;;;;;1999.90;999.90;;;9.60;99.90;;;;;;5032918;28;20041;-70
2023/12/31 06:48:46;;;;;;;1999.90;999.90;;;9.60;99.90;;;;;;5033967;28;20025;-70
2023/12/31 06:51:11;;;;;;;1999.90;999.90;;;9.60;99.90;;;;;;5044087;28;20103;-70
2023/12/31 06:53:38;;;;;;;1999.90;999.90;;;9.60;99.90;;;;;;5023380;28;20029;-70
2023/12/31 06:56:05;;;;;;;1999.90;999.90;;;9.60;99.90;;;;;;5032595;28;20032;-70
2023/12/31 06:58:31;;;;;;;1999.90;999.90;;;9.60;99.90;;;;;;5033141;28;20424;-70
2023/12/31 07:00:57;;;;;;;1999.90;999.90;;;9.60;99.90;;;;;;5023438;28;20033;-70
2023/12/31 07:03:22;;;;;;;1999.90;999.90;;;9.70;99.90;;;;;;5036538;28;20025;-70
2023/12/31 07:05:48;;;;;;;1999.90;999.90;;;9.60;99.90;;;;;;5023485;28;20030;-69
2023/12/31 07:08:15;;;;;;;1999.90;999.90;;;9.70;99.90;;;;;;5024400;28;20029;-70
2023/12/31 07:10:42;;;;;;;1999.90;999.90;;;9.60;99.90;;;;;;5029863;28;20117;-70
2023/12/31 07:13:08;;;;;;;1999.90;999.90;;;9.70;99.90;;;;;;5031040;28;20025;-70
2023/12/31 07:15:35;;;;;;;1999.90;999.90;;;9.70;99.90;;;;;;5031877;28;20037;-70
2023/12/31 07:18:02;;;;;;;1999.90;999.90;;;9.70;99.90;;;;;;5030851;28;20034;-70
2023/12/31 07:20:28;;;;;;;1999.90;999.90;;;9.80;99.90;;;;;;5026238;28;20025;-70
2023/12/31 07:22:53;;;;;;;1999.90;999.90;;;9.80;99.90;;;;;;5030060;28;20428;-71
2023/12/31 07:25:20;;;;;;;1999.90;999.90;;;9.70;99.90;;;;;;5029570;28;20037;-71
2023/12/31 07:27:46;;;;;;;1999.90;999.90;;;9.70;99.90;;;;;;5028948;28;20134;-69
2023/12/31 07:30:12;;;;;;;1999.90;999.90;;;9.70;99.90;;;;;;5020068;28;20033;-70
2023/12/31 07:32:38;;;;;;;1999.90;999.90;;;9.70;99.90;;;;;;5040284;28;20017;-71
2023/12/31 07:35:05;;;;;;;1999.90;999.90;;;9.70;99.90;;;;;;5026023;28;20068;-70
2023/12/31 07:37:30;;;;;;;;;;;9.70;99.90;;;;;;5028131;28;20064;-70
2023/12/31 07:39:57;;;;;;;1999.90;999.90;;;9.70;99.90;;;;;;5023533;28;19933;-70
2023/12/31 07:42:23;;;;;;;1999.90;999.90;;;9.80;99.90;;;;;;5023734;28;20341;-70
2023/12/31 07:44:49;;;;;;;1999.90;999.90;;;9.80;99.90;;;;;;5036060;28;20021;-70
2023/12/31 07:47:15;;;;;;;1999.90;999.90;;;9.80;99.90;;;;;;5020843;28;20429;-69
2023/12/31 07:49:41;;;;;;;1999.90;999.90;;;9.80;99.90;;;;;;5020778;28;20034;-70
2023/12/31 07:52:07;;;;;;;1999.90;999.90;;;9.70;99.90;;;;;;5025228;28;20403;-70
2023/12/31 07:54:32;;;;;;;1999.90;999.90;;;9.70;99.90;;;;;;5037341;28;20082;-70
2023/12/31 07:56:59;;;;;;;1999.90;999.90;;;9.70;99.90;;;;;;5030703;28;20557;-70
2023/12/31 07:59:25;;;;;;;1999.90;999.90;;;9.60;99.90;;;;;;5024919;28;20411;-70
2023/12/31 08:01:51;;;;;;;1999.90;999.90;;;9.60;99.90;;;;;;5016163;28;20026;-70
2023/12/31 08:04:17;;;;;;;1999.90;999.90;;;9.50;99.90;;;;;;5013743;28;20024;-70
2023/12/31 08:06:42;;;;;;;1999.90;999.90;;;9.60;99.90;;;;;;5021941;28;20349;-70
2023/12/31 08:09:11;;;;;;;1999.90;999.90;;;9.50;99.90;;;;;;5025014;28;20440;-70
2023/12/31 08:11:37;;;;;;;1999.90;999.90;;;9.50;99.90;;;;;;5026568;28;20140;-70
2023/12/31 08:14:03;;;;;;;1999.90;999.90;;;9.60;99.90;;;;;;5016118;28;20018;-70
2023/12/31 08:16:29;;;;;;;1999.90;999.90;;;9.60;99.90;;;;;;5027262;28;20049;-71
2023/12/31 08:18:55;;;;;;;1999.90;999.90;;;9.60;99.90;;;;;;5028517;28;20579;-70
2023/12/31 08:21:20;;;;;;;1999.90;999.90;;;9.60;99.90;;;;;;5025286;28;20089;-70
2023/12/31 08:23:46;;;;;;;1999.90;999.90;;;9.60;99.90;;;;;;5023568;28;20029;-70
2023/12/31 08:26:13;;;;;;;1999.90;999.90;;;9.60;99.90;;;;;;5027209;28;20033;-70
2023/12/31 08:28:39;;;;;;;1999.90;999.90;;;9.60;99.90;;;;;;5042802;28;20082;-70
2023/12/31 08:31:05;;;;;;;1999.90;999.90;;;9.70;99.90;;;;;;5037266;28;20037;-70
2023/12/31 08:33:31;;;;;;;1999.90;999.90;;;9.70;99.90;;;;;;5051166;28;20104;-70
2023/12/31 08:35:56;;;;;;;1999.90;999.90;;;9.70;99.90;;;;;;5037964;28;20261;-70
2023/12/31 08:38:22;;;;;;;1999.90;999.90;;;9.70;99.90;;;;;;5045423;28;20043;-70
2023/12/31 08:40:48;;;;;;;1999.90;999.90;;;9.70;99.90;;;;;;5036409;28;20063;-70
2023/12/31 08:43:16;;;;;;;1999.90;999.90;;;9.70;99.90;;;;;;5023422;28;20370;-71
2023/12/31 08:45:43;;;;;;;1999.90;999.90;;;9.70;99.90;;;;;;5033218;28;20021;-70
2023/12/31 08:48:10;;;;;;;1999.90;999.90;;;9.70;99.90;;;;;;5034925;28;20096;-70
2023/12/31 08:50:36;;;;;;;;;;;9.70;99.90;;;;;;5031101;28;20041;-70
2023/12/31 08:53:01;;;;;;;1999.90;999.90;;;9.70;99.90;;;;;;5036591;28;19904;-70
2023/12/31 08:55:27;;;;;;;1999.90;999.90;;;9.70;99.90;;;;;;5032123;28;20108;-70
2023/12/31 08:57:53;;;;;;;1999.90;999.90;;;9.70;99.90;;;;;;5042933;28;20058;-70
2023/12/31 09:00:18;;;;;;;1999.90;999.90;;;9.70;99.90;;;;;;5031026;28;20030;-70
2023/12/31 09:02:45;;;;;;;1999.90;999.90;;;9.70;99.90;;;;;;5032015;28;20025;-70
2023/12/31 09:05:10;;;;;;;1999.90;999.90;;;9.70;99.90;;;;;;5029165;28;20094;-70
2023/12/31 09:07:36;;;;;;;1999.90;999.90;;;9.70;99.90;;;;;;5031353;28;20116;-70
2023/12/31 09:10:06;;;;;;;1999.90;999.90;;;9.70;99.90;;;;;;5030558;28;20057;-71
2023/12/31 09:12:31;;;;;;;1999.90;999.90;;;9.60;99.90;;;;;;5027637;28;20026;-70
2023/12/31 09:14:58;;;;;;;1999.90;999.90;;;9.60;99.90;;;;;;5032278;28;20072;-70
2023/12/31 09:17:24;;;;;;;1999.90;999.90;;;9.50;99.90;;;;;;5026885;28;20029;-70
2023/12/31 09:19:49;;;;;;;1999.90;999.90;;;9.40;99.90;;;;;;5029684;28;20044;-72
2023/12/31 09:22:15;;;;;;;1999.90;999.90;;;9.30;99.90;;;;;;5035209;28;20041;-70
2023/12/31 09:24:41;;;;;;;1999.90;999.90;;;9.10;99.90;;;;;;5031676;28;20089;-70
2023/12/31 09:27:07;;;;;;;1999.90;999.90;;;9.00;99.90;;;;;;5036055;28;20535;-70
2023/12/31 09:29:36;;;;;;;1999.90;999.90;;;8.80;99.90;;;;;;5028970;28;20028;-71
2023/12/31 09:32:03;;;;;;;1999.90;999.90;;;8.60;99.90;;;;;;5018472;28;20408;-70
2023/12/31 09:34:29;;;;;;;1999.90;999.90;;;8.50;99.90;;;;;;5031623;28;20026;-70
2023/12/31 09:36:55;;;;;;;1999.90;999.90;;;8.30;99.90;;;;;;5029954;28;20381;-69
2023/12/31 09:39:21;;;;;;;1999.90;999.90;;;8.20;99.90;;;;;;5034512;28;20120;-70
2023/12/31 09:41:53;;;;;;;1999.90;999.90;;;8.20;99.90;;;;;;5024808;28;20042;-69
2023/12/31 09:44:19;;;;;;;1999.90;999.90;;;8.10;99.90;;;;;;5033200;28;20374;-70
2023/12/31 09:47:11;;;;;;;1999.90;999.90;;;8.10;99.90;;;;;;5029238;28;20030;-70
2023/12/31 09:49:39;;;;;;;1999.90;999.90;;;8.00;99.90;;;;;;5025577;28;20041;-70
2023/12/31 09:52:09;;;;;;;1999.90;999.90;;;8.00;99.90;;;;;;5025353;28;20546;-70
2023/12/31 09:54:40;;;;;;;1999.90;999.90;;;8.10;99.90;;;;;;5026292;28;24353;-70
2023/12/31 09:57:07;;;;;;;1999.90;999.90;;;8.10;99.90;;;;;;5020859;28;20352;-70
2023/12/31 09:59:32;;;;;;;;;;;8.10;99.90;;;;;;5030117;28;20033;-70
2023/12/31 10:02:03;;;;;;;1999.90;999.90;;;8.10;99.90;;;;;;5025493;28;19916;-70
2023/12/31 10:04:30;;;;;;;1999.90;999.90;;;8.20;99.90;;;;;;5027938;28;20025;-71
2023/12/31 10:06:56;;;;;;;1999.90;999.90;;;8.20;99.90;;;;;;5029238;28;20080;-71
2023/12/31 10:09:27;;;;;;;1999.90;999.90;;;8.20;99.90;;;;;;5023685;28;20021;-70
2023/12/31 10:11:54;;;;;;;1999.90;999.90;;;8.30;99.90;;;;;;5030043;28;20523;-70
2023/12/31 10:14:21;;;;;;;1999.90;999.90;;;8.40;99.90;;;;;;5022607;28;20080;-70
2023/12/31 10:16:47;;;;;;;1999.90;999.90;;;8.40;99.90;;;;;;5030739;28;20022;-70
2023/12/31 10:19:14;;;;;;;1999.90;999.90;;;8.50;99.90;;;;;;5031089;28;20033;-70
2023/12/31 10:21:41;;;;;;;1999.90;999.90;;;8.70;99.90;;;;;;5028890;28;20076;-71
2023/12/31 10:24:08;;;;;;;1999.90;999.90;;;8.80;99.90;;;;;;5021009;28;20018;-71
2023/12/31 10:26:34;;;;;;;1999.90;999.90;;;8.90;99.90;;;;;;5023898;28;20053;-70
2023/12/31 10:29:00;;;;;;;1999.90;999.90;;;8.90;99.90;;;;;;5024822;28;20316;-71
2023/12/31 10:31:25;;;;;;;1999.90;999.90;;;8.90;99.90;;;;;;5030788;28;20049;-69
2023/12/31 10:33:51;;;;;;;1999.90;999.90;;;8.90;99.90;;;;;;5023065;28;20030;-70
2023/12/31 10:36:24;;;;;;;1999.90;999.90;;;8.90;99.90;;;;;;5027853;28;20057;-71
2023/12/31 10:38:51;;;;;;;1999.90;999.90;;;8.90;99.90;;;;;;5030097;28;20032;-71
2023/12/31 10:41:21;;;;;;;1999.90;999.90;;;9.00;99.90;;;;;;5022051;28;20056;-69
2023/12/31 10:43:48;;;;;;;1999.90;999.90;;;9.10;99.90;;;;;;5029948;28;20033;-70
2023/12/31 10:46:15;;;;;;;1999.90;999.90;;;9.20;99.90;;;;;;5035459;28;20325;-70
2023/12/31 10:49:00;;;;;;;1999.90;999.90;;;9.20;99.90;;;;;;5026584;28;20105;-70
2023/12/31 10:51:27;;;;;;;1999.90;999.90;;;9.30;99.90;;;;;;5029081;28;20091;-71
2023/12/31 10:53:58;;;;;;;1999.90;999.90;;;9.20;99.90;;;;;;5025308;28;20075;-69
2023/12/31 10:56:25;;;;;;;1999.90;999.90;;;9.20;99.90;;;;;;5025761;28;20048;-70
2023/12/31 10:58:54;;;;;;;1999.90;999.90;;;9.20;99.90;;;;;;5022351;28;20316;-69
2023/12/31 11:01:24;;;;;;;1999.90;999.90;;;9.30;99.90;;;;;;5020520;28;20116;-71
2023/12/31 11:03:52;;;;;;;1999.90;999.90;;;9.50;99.90;;;;;;5026630;28;20036;-71
2023/12/31 11:06:19;;;;;;;1999.90;999.90;;;9.60;99.90;;;;;;5028565;28;20021;-70
2023/12/31 11:08:45;;;;;;;1999.90;999.90;;;9.60;99.90;;;;;;5032356;28;20033;-70
2023/12/31 11:11:11;;;;;;;1999.90;999.90;;;9.60;99.90;;;;;;5030030;28;20391;-70
2023/12/31 11:13:40;;;;;;;1999.90;999.90;;;9.50;99.90;;;;;;5024605;28;20101;-71
2023/12/31 11:16:14;;;;;;;1999.90;999.90;;;9.40;99.90;;;;;;5026018;28;20075;-70
2023/12/31 11:19:19;;;;;;;1999.90;999.90;;;9.30;99.90;;;;;;5029974;28;20668;-70
2023/12/31 11:22:04;;;;;;;1999.90;999.90;;;9.20;99.90;;;;;;5031765;28;20029;-70
2023/12/31 11:24:31;;;;;;;1999.90;999.90;;;9.10;99.90;;;;;;5029961;28;20034;-69
2023/12/31 11:27:26;;;;;;;1999.90;999.90;;;9.10;99.90;;;;;;5016893;28;20360;-69
2023/12/31 11:29:54;;;;;;;1999.90;999.90;;;9.10;99.90;;;;;;5028054;28;20041;-71
2023/12/31 11:32:20;;;;;;;1999.90;999.90;;;9.10;99.90;;;;;;5023964;28;20033;-70
2023/12/31 11:34:52;;;;;;;1999.90;999.90;;;8.90;99.90;;;;;;5021404;28;20309;-71
2023/12/31 11:37:18;;;;;;;1999.90;999.90;;;8.90;99.90;;;;;;5031756;28;20030;-71
2023/12/31 11:39:48;;;;;;;1999.90;999.90;;;8.80;99.90;;;;;;5028801;28;20337;-70
2023/12/31 11:42:15;;;;;;;1999.90;999.90;;;8.70;99.90;;;;;;5032269;28;20282;-70
2023/12/31 11:44:43;;;;;;;1999.90;999.90;;;8.60;99.90;;;;;;5035069;28;20444;-71
2023/12/31 11:47:27;;;;;;;1999.90;999.90;;;8.40;99.90;;;;;;5029287;28;20056;-69
2023/12/31 11:49:54;;;;;;;1999.90;999.90;;;8.40;99.90;;;;;;5031747;28;20417;-69
2023/12/31 11:52:21;;;;;;;1999.90;999.90;;;8.30;99.90;;;;;;5032565;28;20152;-70
2023/12/31 11:54:50;;;;;;;1999.90;999.90;;;8.30;99.90;;;;;;5034343;28;20036;-70
2023/12/31 11:57:19;;;;;;;1999.90;999.90;;;8.30;99.90;;;;;;5029468;28;20037;-70
2023/12/31 11:59:45;;;;;;;1999.90;999.90;;;8.30;99.90;;;;;;5030637;28;20124;-70
2023/12/31 12:02:11;;;;;;;1999.90;999.90;;;8.30;99.90;;;;;;5034288;28;20025;-70
2023/12/31 12:04:37;;;;;;;1999.90;999.90;;;8.30;99.90;;;;;;5031219;28;20030;-71
2023/12/31 12:07:04;;;;;;;1999.90;999.90;;;8.30;99.90;;;;;;5029811;28;20254;-70